sensor_id;sensor_type;location;lat;lon;timestamp;P1;durP1;ratioP1;P2;durP2;ratioP2
38994;SDS011;24769;18.712;99.000;2023-03-01T00:00:07;158.00;;;154.33;;
38994;SDS011;24769;18.712;99.000;2023-03-01T00:02:34;158.75;;;157.50;;
38994;SDS011;24769;18.712;99.000;2023-03-01T00:05:01;143.00;;;142.33;;
38994;SDS011;24769;18.712;99.000;2023-03-01T00:07:28;154.67;;;148.67;;
38994;SDS011;24769;18.712;99.000;2023-03-01T00:09:55;160.25;;;153.75;;
38994;SDS011;24769;18.712;99.000;2023-03-01T00:12:21;164.00;;;159.75;;
38994;SDS011;24769;18.712;99.000;2023-03-01T00:14:48;137.67;;;135.67;;
38994;SDS011;24769;18.712;99.000;2023-03-01T00:17:14;155.00;;;148.50;;
38994;SDS011;24769;18.712;99.000;2023-03-01T00:19:41;148.50;;;144.25;;
38994;SDS011;24769;18.712;99.000;2023-03-01T00:22:07;156.00;;;154.75;;
38994;SDS011;24769;18.712;99.000;2023-03-01T00:24:34;165.00;;;156.50;;
38994;SDS011;24769;18.712;99.000;2023-03-01T00:27:00;145.00;;;144.50;;
38994;SDS011;24769;18.712;99.000;2023-03-01T00:29:27;156.50;;;153.50;;
38994;SDS011;24769;18.712;99.000;2023-03-01T00:31:53;155.50;;;151.75;;
38994;SDS011;24769;18.712;99.000;2023-03-01T00:34:20;148.75;;;147.25;;
38994;SDS011;24769;18.712;99.000;2023-03-01T00:36:46;162.25;;;156.75;;
38994;SDS011;24769;18.712;99.000;2023-03-01T00:39:13;156.75;;;152.00;;
38994;SDS011;24769;18.712;99.000;2023-03-01T00:41:41;150.75;;;147.50;;
38994;SDS011;24769;18.712;99.000;2023-03-01T00:44:08;145.50;;;140.50;;
38994;SDS011;24769;18.712;99.000;2023-03-01T00:46:35;149.25;;;143.75;;
38994;SDS011;24769;18.712;99.000;2023-03-01T00:49:02;150.25;;;149.00;;
38994;SDS011;24769;18.712;99.000;2023-03-01T00:51:29;151.25;;;149.00;;
38994;SDS011;24769;18.712;99.000;2023-03-01T00:53:59;164.67;;;164.67;;
38994;SDS011;24769;18.712;99.000;2023-03-01T00:56:27;167.33;;;162.67;;
38994;SDS011;24769;18.712;99.000;2023-03-01T00:58:54;170.00;;;164.00;;
38994;SDS011;24769;18.712;99.000;2023-03-01T01:01:24;169.67;;;167.67;;
38994;SDS011;24769;18.712;99.000;2023-03-01T01:03:55;168.33;;;161.67;;
38994;SDS011;24769;18.712;99.000;2023-03-01T01:06:28;175.67;;;173.67;;
38994;SDS011;24769;18.712;99.000;2023-03-01T01:08:56;164.00;;;159.00;;
38994;SDS011;24769;18.712;99.000;2023-03-01T01:11:24;163.00;;;161.33;;
38994;SDS011;24769;18.712;99.000;2023-03-01T01:13:52;161.75;;;157.25;;
38994;SDS011;24769;18.712;99.000;2023-03-01T01:16:20;173.67;;;169.67;;
38994;SDS011;24769;18.712;99.000;2023-03-01T01:18:48;173.25;;;169.00;;
38994;SDS011;24769;18.712;99.000;2023-03-01T01:21:17;179.50;;;174.25;;
38994;SDS011;24769;18.712;99.000;2023-03-01T01:23:45;155.75;;;154.75;;
38994;SDS011;24769;18.712;99.000;2023-03-01T01:26:15;165.50;;;160.25;;
38994;SDS011;24769;18.712;99.000;2023-03-01T01:28:44;171.00;;;167.00;;
38994;SDS011;24769;18.712;99.000;2023-03-01T01:31:11;163.25;;;157.50;;
38994;SDS011;24769;18.712;99.000;2023-03-01T01:33:38;163.25;;;157.25;;
38994;SDS011;24769;18.712;99.000;2023-03-01T01:36:05;158.75;;;156.50;;
38994;SDS011;24769;18.712;99.000;2023-03-01T01:38:32;160.00;;;157.75;;
38994;SDS011;24769;18.712;99.000;2023-03-01T01:40:59;152.50;;;151.00;;
38994;SDS011;24769;18.712;99.000;2023-03-01T01:43:30;171.00;;;164.75;;
38994;SDS011;24769;18.712;99.000;2023-03-01T01:46:00;160.50;;;157.75;;
38994;SDS011;24769;18.712;99.000;2023-03-01T01:48:49;166.50;;;163.75;;
38994;SDS011;24769;18.712;99.000;2023-03-01T01:51:20;162.75;;;161.75;;
38994;SDS011;24769;18.712;99.000;2023-03-01T01:53:53;161.25;;;156.75;;
38994;SDS011;24769;18.712;99.000;2023-03-01T01:56:26;157.75;;;152.75;;
38994;SDS011;24769;18.712;99.000;2023-03-01T01:58:54;155.75;;;153.50;;
38994;SDS011;24769;18.712;99.000;2023-03-01T02:01:22;160.50;;;156.00;;
38994;SDS011;24769;18.712;99.000;2023-03-01T02:03:48;174.75;;;169.75;;
38994;SDS011;24769;18.712;99.000;2023-03-01T02:06:26;163.00;;;154.75;;
38994;SDS011;24769;18.712;99.000;2023-03-01T02:09:29;154.50;;;152.75;;
38994;SDS011;24769;18.712;99.000;2023-03-01T02:11:50;155.25;;;154.25;;
38994;SDS011;24769;18.712;99.000;2023-03-01T02:14:17;154.60;;;150.20;;
38994;SDS011;24769;18.712;99.000;2023-03-01T02:16:44;153.40;;;150.60;;
38994;SDS011;24769;18.712;99.000;2023-03-01T02:19:18;159.80;;;152.60;;
38994;SDS011;24769;18.712;99.000;2023-03-01T02:22:12;149.20;;;143.20;;
38994;SDS011;24769;18.712;99.000;2023-03-01T02:30:44;153.00;;;149.40;;
38994;SDS011;24769;18.712;99.000;2023-03-01T02:33:33;147.60;;;145.00;;
38994;SDS011;24769;18.712;99.000;2023-03-01T02:36:02;146.20;;;143.60;;
38994;SDS011;24769;18.712;99.000;2023-03-01T02:38:33;146.80;;;145.00;;
38994;SDS011;24769;18.712;99.000;2023-03-01T02:40:59;143.00;;;141.20;;
38994;SDS011;24769;18.712;99.000;2023-03-01T02:43:29;140.60;;;138.20;;
38994;SDS011;24769;18.712;99.000;2023-03-01T02:45:59;142.20;;;137.80;;
38994;SDS011;24769;18.712;99.000;2023-03-01T02:48:38;144.60;;;143.20;;
38994;SDS011;24769;18.712;99.000;2023-03-01T02:51:17;136.80;;;135.40;;
38994;SDS011;24769;18.712;99.000;2023-03-01T02:56:38;133.80;;;132.00;;
38994;SDS011;24769;18.712;99.000;2023-03-01T02:59:06;145.20;;;145.00;;
38994;SDS011;24769;18.712;99.000;2023-03-01T03:01:32;135.40;;;132.20;;
38994;SDS011;24769;18.712;99.000;2023-03-01T03:04:03;140.40;;;138.60;;
38994;SDS011;24769;18.712;99.000;2023-03-01T03:06:30;141.40;;;140.80;;
38994;SDS011;24769;18.712;99.000;2023-03-01T03:08:57;136.40;;;136.00;;
38994;SDS011;24769;18.712;99.000;2023-03-01T03:11:24;137.60;;;137.60;;
38994;SDS011;24769;18.712;99.000;2023-03-01T03:13:51;136.80;;;136.60;;
38994;SDS011;24769;18.712;99.000;2023-03-01T03:16:18;143.40;;;143.20;;
38994;SDS011;24769;18.712;99.000;2023-03-01T03:18:45;134.60;;;132.60;;
38994;SDS011;24769;18.712;99.000;2023-03-01T03:21:12;138.20;;;133.40;;
38994;SDS011;24769;18.712;99.000;2023-03-01T03:23:39;140.00;;;137.40;;
38994;SDS011;24769;18.712;99.000;2023-03-01T03:26:05;144.60;;;143.60;;
38994;SDS011;24769;18.712;99.000;2023-03-01T03:28:33;136.80;;;133.00;;
38994;SDS011;24769;18.712;99.000;2023-03-01T03:31:00;135.00;;;133.40;;
38994;SDS011;24769;18.712;99.000;2023-03-01T03:33:30;144.40;;;142.60;;
38994;SDS011;24769;18.712;99.000;2023-03-01T03:35:57;139.00;;;136.20;;
38994;SDS011;24769;18.712;99.000;2023-03-01T03:38:24;138.80;;;137.80;;
38994;SDS011;24769;18.712;99.000;2023-03-01T03:43:20;142.40;;;140.60;;
38994;SDS011;24769;18.712;99.000;2023-03-01T03:45:49;147.40;;;146.80;;
38994;SDS011;24769;18.712;99.000;2023-03-01T03:48:16;136.80;;;136.20;;
38994;SDS011;24769;18.712;99.000;2023-03-01T03:50:47;139.00;;;138.80;;
38994;SDS011;24769;18.712;99.000;2023-03-01T03:53:18;134.20;;;133.80;;
38994;SDS011;24769;18.712;99.000;2023-03-01T03:55:45;141.60;;;136.20;;
38994;SDS011;24769;18.712;99.000;2023-03-01T03:58:14;140.80;;;140.40;;
38994;SDS011;24769;18.712;99.000;2023-03-01T04:00:45;140.00;;;137.80;;
38994;SDS011;24769;18.712;99.000;2023-03-01T04:03:13;124.40;;;121.40;;
38994;SDS011;24769;18.712;99.000;2023-03-01T04:05:41;140.60;;;139.40;;
38994;SDS011;24769;18.712;99.000;2023-03-01T04:08:08;136.80;;;135.60;;
38994;SDS011;24769;18.712;99.000;2023-03-01T04:10:39;139.00;;;138.40;;
38994;SDS011;24769;18.712;99.000;2023-03-01T04:13:09;144.60;;;142.40;;
38994;SDS011;24769;18.712;99.000;2023-03-01T04:15:38;147.60;;;146.00;;
38994;SDS011;24769;18.712;99.000;2023-03-01T04:18:05;121.20;;;119.00;;
38994;SDS011;24769;18.712;99.000;2023-03-01T04:20:33;135.20;;;134.00;;
38994;SDS011;24769;18.712;99.000;2023-03-01T04:28:25;142.00;;;139.60;;
38994;SDS011;24769;18.712;99.000;2023-03-01T04:30:53;137.20;;;136.00;;
38994;SDS011;24769;18.712;99.000;2023-03-01T04:33:21;140.20;;;139.80;;
38994;SDS011;24769;18.712;99.000;2023-03-01T04:35:48;140.80;;;140.00;;
38994;SDS011;24769;18.712;99.000;2023-03-01T04:38:16;135.40;;;134.80;;
38994;SDS011;24769;18.712;99.000;2023-03-01T04:40:43;139.60;;;139.00;;
38994;SDS011;24769;18.712;99.000;2023-03-01T04:43:10;132.20;;;130.40;;
38994;SDS011;24769;18.712;99.000;2023-03-01T04:45:41;132.80;;;132.80;;
38994;SDS011;24769;18.712;99.000;2023-03-01T04:48:07;139.60;;;139.00;;
38994;SDS011;24769;18.712;99.000;2023-03-01T04:50:34;130.60;;;129.60;;
38994;SDS011;24769;18.712;99.000;2023-03-01T04:53:01;142.20;;;140.60;;
38994;SDS011;24769;18.712;99.000;2023-03-01T04:55:28;144.80;;;142.80;;
38994;SDS011;24769;18.712;99.000;2023-03-01T04:57:55;135.80;;;133.20;;
38994;SDS011;24769;18.712;99.000;2023-03-01T05:00:21;132.60;;;132.40;;
38994;SDS011;24769;18.712;99.000;2023-03-01T05:05:29;135.80;;;132.60;;
38994;SDS011;24769;18.712;99.000;2023-03-01T05:08:02;134.60;;;134.60;;
38994;SDS011;24769;18.712;99.000;2023-03-01T05:10:31;140.20;;;139.60;;
38994;SDS011;24769;18.712;99.000;2023-03-01T05:13:00;128.20;;;126.60;;
38994;SDS011;24769;18.712;99.000;2023-03-01T05:15:28;131.40;;;131.20;;
38994;SDS011;24769;18.712;99.000;2023-03-01T05:17:57;139.40;;;139.20;;
38994;SDS011;24769;18.712;99.000;2023-03-01T05:20:25;127.80;;;125.60;;
38994;SDS011;24769;18.712;99.000;2023-03-01T05:22:54;129.80;;;129.80;;
38994;SDS011;24769;18.712;99.000;2023-03-01T05:25:26;136.60;;;136.00;;
38994;SDS011;24769;18.712;99.000;2023-03-01T05:28:01;126.20;;;126.00;;
38994;SDS011;24769;18.712;99.000;2023-03-01T05:30:32;133.80;;;132.00;;
38994;SDS011;24769;18.712;99.000;2023-03-01T05:32:59;142.00;;;138.00;;
38994;SDS011;24769;18.712;99.000;2023-03-01T05:35:26;141.20;;;137.80;;
38994;SDS011;24769;18.712;99.000;2023-03-01T05:37:54;132.20;;;131.20;;
38994;SDS011;24769;18.712;99.000;2023-03-01T05:40:22;140.00;;;138.20;;
38994;SDS011;24769;18.712;99.000;2023-03-01T05:42:52;145.00;;;141.80;;
38994;SDS011;24769;18.712;99.000;2023-03-01T05:45:21;143.00;;;141.40;;
38994;SDS011;24769;18.712;99.000;2023-03-01T05:47:49;134.40;;;130.80;;
38994;SDS011;24769;18.712;99.000;2023-03-01T05:52:47;138.40;;;136.80;;
38994;SDS011;24769;18.712;99.000;2023-03-01T05:55:19;142.40;;;140.40;;
38994;SDS011;24769;18.712;99.000;2023-03-01T05:57:47;135.60;;;133.40;;
38994;SDS011;24769;18.712;99.000;2023-03-01T06:00:18;130.80;;;128.60;;
38994;SDS011;24769;18.712;99.000;2023-03-01T06:02:49;142.40;;;141.00;;
38994;SDS011;24769;18.712;99.000;2023-03-01T06:05:17;145.80;;;145.60;;
38994;SDS011;24769;18.712;99.000;2023-03-01T06:07:43;142.00;;;141.20;;
38994;SDS011;24769;18.712;99.000;2023-03-01T06:10:11;139.80;;;138.80;;
38994;SDS011;24769;18.712;99.000;2023-03-01T06:12:39;146.00;;;144.40;;
38994;SDS011;24769;18.712;99.000;2023-03-01T06:15:07;146.60;;;144.60;;
38994;SDS011;24769;18.712;99.000;2023-03-01T06:17:36;135.60;;;135.60;;
38994;SDS011;24769;18.712;99.000;2023-03-01T06:20:08;138.40;;;137.00;;
38994;SDS011;24769;18.712;99.000;2023-03-01T06:22:37;135.00;;;132.40;;
38994;SDS011;24769;18.712;99.000;2023-03-01T06:25:04;140.40;;;139.60;;
38994;SDS011;24769;18.712;99.000;2023-03-01T06:27:31;149.80;;;148.80;;
38994;SDS011;24769;18.712;99.000;2023-03-01T06:29:58;147.40;;;146.40;;
38994;SDS011;24769;18.712;99.000;2023-03-01T06:32:24;134.40;;;132.20;;
38994;SDS011;24769;18.712;99.000;2023-03-01T06:34:50;147.20;;;144.20;;
38994;SDS011;24769;18.712;99.000;2023-03-01T06:37:17;153.00;;;152.20;;
38994;SDS011;24769;18.712;99.000;2023-03-01T06:39:43;148.80;;;146.20;;
38994;SDS011;24769;18.712;99.000;2023-03-01T06:42:10;156.20;;;153.80;;
38994;SDS011;24769;18.712;99.000;2023-03-01T06:44:37;147.00;;;145.20;;
38994;SDS011;24769;18.712;99.000;2023-03-01T06:47:04;148.20;;;147.80;;
38994;SDS011;24769;18.712;99.000;2023-03-01T06:49:30;140.00;;;139.80;;
38994;SDS011;24769;18.712;99.000;2023-03-01T06:51:57;143.00;;;142.00;;
38994;SDS011;24769;18.712;99.000;2023-03-01T06:54:23;148.40;;;147.00;;
38994;SDS011;24769;18.712;99.000;2023-03-01T06:56:50;146.20;;;144.60;;
38994;SDS011;24769;18.712;99.000;2023-03-01T06:59:16;147.80;;;146.20;;
38994;SDS011;24769;18.712;99.000;2023-03-01T07:01:43;143.40;;;142.20;;
38994;SDS011;24769;18.712;99.000;2023-03-01T07:04:10;143.60;;;142.80;;
38994;SDS011;24769;18.712;99.000;2023-03-01T07:06:38;145.00;;;143.80;;
38994;SDS011;24769;18.712;99.000;2023-03-01T07:09:05;140.60;;;140.20;;
38994;SDS011;24769;18.712;99.000;2023-03-01T07:11:31;149.40;;;146.40;;
38994;SDS011;24769;18.712;99.000;2023-03-01T07:13:58;150.00;;;148.40;;
38994;SDS011;24769;18.712;99.000;2023-03-01T07:16:25;141.40;;;140.00;;
38994;SDS011;24769;18.712;99.000;2023-03-01T07:18:51;152.00;;;151.00;;
38994;SDS011;24769;18.712;99.000;2023-03-01T07:21:18;141.60;;;140.40;;
38994;SDS011;24769;18.712;99.000;2023-03-01T07:23:46;142.40;;;141.20;;
38994;SDS011;24769;18.712;99.000;2023-03-01T07:26:14;147.60;;;145.00;;
38994;SDS011;24769;18.712;99.000;2023-03-01T07:28:40;140.80;;;140.40;;
38994;SDS011;24769;18.712;99.000;2023-03-01T07:31:07;147.00;;;142.80;;
38994;SDS011;24769;18.712;99.000;2023-03-01T07:33:33;107.60;;;107.60;;
38994;SDS011;24769;18.712;99.000;2023-03-01T07:36:00;145.60;;;143.20;;
38994;SDS011;24769;18.712;99.000;2023-03-01T07:38:29;153.20;;;151.80;;
38994;SDS011;24769;18.712;99.000;2023-03-01T07:40:59;147.20;;;146.80;;
38994;SDS011;24769;18.712;99.000;2023-03-01T07:43:28;149.60;;;147.60;;
38994;SDS011;24769;18.712;99.000;2023-03-01T07:45:57;159.60;;;156.80;;
38994;SDS011;24769;18.712;99.000;2023-03-01T07:48:28;148.00;;;146.60;;
38994;SDS011;24769;18.712;99.000;2023-03-01T07:50:58;141.80;;;140.80;;
38994;SDS011;24769;18.712;99.000;2023-03-01T07:53:26;146.20;;;144.80;;
38994;SDS011;24769;18.712;99.000;2023-03-01T07:58:29;138.80;;;136.80;;
38994;SDS011;24769;18.712;99.000;2023-03-01T08:01:00;136.00;;;134.00;;
38994;SDS011;24769;18.712;99.000;2023-03-01T08:03:28;142.60;;;141.00;;
38994;SDS011;24769;18.712;99.000;2023-03-01T08:05:55;129.00;;;127.00;;
38994;SDS011;24769;18.712;99.000;2023-03-01T08:08:21;138.80;;;137.40;;
38994;SDS011;24769;18.712;99.000;2023-03-01T08:10:47;146.20;;;144.20;;
38994;SDS011;24769;18.712;99.000;2023-03-01T08:13:14;141.80;;;140.40;;
38994;SDS011;24769;18.712;99.000;2023-03-01T08:15:40;119.60;;;116.40;;
38994;SDS011;24769;18.712;99.000;2023-03-01T08:18:07;131.40;;;129.80;;
38994;SDS011;24769;18.712;99.000;2023-03-01T08:20:33;124.60;;;122.20;;
38994;SDS011;24769;18.712;99.000;2023-03-01T08:23:00;127.80;;;125.60;;
38994;SDS011;24769;18.712;99.000;2023-03-01T08:25:26;118.00;;;115.80;;
38994;SDS011;24769;18.712;99.000;2023-03-01T08:27:53;118.80;;;116.80;;
38994;SDS011;24769;18.712;99.000;2023-03-01T08:30:19;109.25;;;109.00;;
38994;SDS011;24769;18.712;99.000;2023-03-01T08:32:46;108.60;;;108.60;;
38994;SDS011;24769;18.712;99.000;2023-03-01T08:35:12;128.40;;;128.40;;
38994;SDS011;24769;18.712;99.000;2023-03-01T08:37:38;128.40;;;125.80;;
38994;SDS011;24769;18.712;99.000;2023-03-01T08:40:05;138.40;;;137.80;;
38994;SDS011;24769;18.712;99.000;2023-03-01T08:42:33;134.00;;;130.80;;
38994;SDS011;24769;18.712;99.000;2023-03-01T08:44:59;121.80;;;119.60;;
38994;SDS011;24769;18.712;99.000;2023-03-01T08:47:25;107.20;;;107.20;;
38994;SDS011;24769;18.712;99.000;2023-03-01T08:49:52;109.80;;;109.80;;
38994;SDS011;24769;18.712;99.000;2023-03-01T08:52:19;114.25;;;112.25;;
38994;SDS011;24769;18.712;99.000;2023-03-01T08:54:49;96.80;;;95.60;;
38994;SDS011;24769;18.712;99.000;2023-03-01T08:57:16;105.50;;;105.25;;
38994;SDS011;24769;18.712;99.000;2023-03-01T08:59:42;91.25;;;90.00;;
38994;SDS011;24769;18.712;99.000;2023-03-01T09:02:13;104.25;;;103.50;;
38994;SDS011;24769;18.712;99.000;2023-03-01T09:04:44;103.75;;;101.75;;
38994;SDS011;24769;18.712;99.000;2023-03-01T09:07:10;98.50;;;98.00;;
38994;SDS011;24769;18.712;99.000;2023-03-01T09:09:37;98.25;;;96.50;;
38994;SDS011;24769;18.712;99.000;2023-03-01T09:12:03;97.50;;;97.50;;
38994;SDS011;24769;18.712;99.000;2023-03-01T09:14:31;105.00;;;104.25;;
38994;SDS011;24769;18.712;99.000;2023-03-01T09:16:57;97.75;;;97.25;;
38994;SDS011;24769;18.712;99.000;2023-03-01T09:19:28;99.25;;;96.75;;
38994;SDS011;24769;18.712;99.000;2023-03-01T09:21:54;97.75;;;97.75;;
38994;SDS011;24769;18.712;99.000;2023-03-01T09:24:24;92.00;;;92.00;;
38994;SDS011;24769;18.712;99.000;2023-03-01T09:26:52;94.50;;;93.75;;
38994;SDS011;24769;18.712;99.000;2023-03-01T09:29:20;98.25;;;97.75;;
38994;SDS011;24769;18.712;99.000;2023-03-01T09:31:47;103.50;;;103.25;;
38994;SDS011;24769;18.712;99.000;2023-03-01T09:34:14;100.25;;;100.00;;
38994;SDS011;24769;18.712;99.000;2023-03-01T09:36:44;100.00;;;99.25;;
38994;SDS011;24769;18.712;99.000;2023-03-01T09:39:10;96.50;;;95.50;;
38994;SDS011;24769;18.712;99.000;2023-03-01T09:41:47;100.25;;;99.75;;
38994;SDS011;24769;18.712;99.000;2023-03-01T09:46:49;102.50;;;102.00;;
38994;SDS011;24769;18.712;99.000;2023-03-01T09:49:18;98.25;;;98.25;;
38994;SDS011;24769;18.712;99.000;2023-03-01T09:51:58;102.00;;;101.75;;
38994;SDS011;24769;18.712;99.000;2023-03-01T09:54:46;98.00;;;97.50;;
38994;SDS011;24769;18.712;99.000;2023-03-01T09:57:19;105.25;;;102.75;;
38994;SDS011;24769;18.712;99.000;2023-03-01T10:02:43;100.00;;;99.50;;
38994;SDS011;24769;18.712;99.000;2023-03-01T10:05:21;99.25;;;99.25;;
38994;SDS011;24769;18.712;99.000;2023-03-01T10:08:06;104.25;;;103.00;;
38994;SDS011;24769;18.712;99.000;2023-03-01T10:10:43;100.40;;;97.80;;
38994;SDS011;24769;18.712;99.000;2023-03-01T10:15:44;84.20;;;83.60;;
38994;SDS011;24769;18.712;99.000;2023-03-01T10:18:26;95.60;;;95.60;;
38994;SDS011;24769;18.712;99.000;2023-03-01T10:20:59;103.75;;;103.50;;
38994;SDS011;24769;18.712;99.000;2023-03-01T10:23:35;104.80;;;103.20;;
38994;SDS011;24769;18.712;99.000;2023-03-01T10:26:12;97.00;;;94.40;;
38994;SDS011;24769;18.712;99.000;2023-03-01T10:29:09;97.80;;;97.00;;
38994;SDS011;24769;18.712;99.000;2023-03-01T10:31:43;98.20;;;97.80;;
38994;SDS011;24769;18.712;99.000;2023-03-01T10:34:16;96.60;;;95.20;;
38994;SDS011;24769;18.712;99.000;2023-03-01T10:36:55;93.00;;;93.00;;
38994;SDS011;24769;18.712;99.000;2023-03-01T10:39:26;95.00;;;92.60;;
38994;SDS011;24769;18.712;99.000;2023-03-01T10:44:35;101.40;;;101.40;;
38994;SDS011;24769;18.712;99.000;2023-03-01T10:49:57;101.60;;;101.60;;
38994;SDS011;24769;18.712;99.000;2023-03-01T10:52:35;103.40;;;102.80;;
38994;SDS011;24769;18.712;99.000;2023-03-01T11:00:47;100.00;;;99.40;;
38994;SDS011;24769;18.712;99.000;2023-03-01T11:03:25;109.80;;;104.80;;
38994;SDS011;24769;18.712;99.000;2023-03-01T11:08:38;103.60;;;100.80;;
38994;SDS011;24769;18.712;99.000;2023-03-01T11:13:55;107.40;;;105.60;;
38994;SDS011;24769;18.712;99.000;2023-03-01T11:16:27;105.80;;;104.80;;
38994;SDS011;24769;18.712;99.000;2023-03-01T11:21:39;105.40;;;104.40;;
38994;SDS011;24769;18.712;99.000;2023-03-01T11:24:11;108.60;;;108.00;;
38994;SDS011;24769;18.712;99.000;2023-03-01T11:26:41;102.20;;;101.80;;
38994;SDS011;24769;18.712;99.000;2023-03-01T11:29:34;107.20;;;104.60;;
38994;SDS011;24769;18.712;99.000;2023-03-01T11:32:01;115.20;;;112.40;;
38994;SDS011;24769;18.712;99.000;2023-03-01T11:37:15;115.20;;;112.80;;
38994;SDS011;24769;18.712;99.000;2023-03-01T11:45:14;95.00;;;92.80;;
38994;SDS011;24769;18.712;99.000;2023-03-01T11:50:30;124.40;;;120.40;;
38994;SDS011;24769;18.712;99.000;2023-03-01T12:01:30;119.80;;;118.20;;
38994;SDS011;24769;18.712;99.000;2023-03-01T12:04:30;129.00;;;125.40;;
38994;SDS011;24769;18.712;99.000;2023-03-01T12:07:00;120.00;;;119.80;;
38994;SDS011;24769;18.712;99.000;2023-03-01T12:12:29;126.60;;;121.40;;
38994;SDS011;24769;18.712;99.000;2023-03-01T12:18:05;117.60;;;117.60;;
38994;SDS011;24769;18.712;99.000;2023-03-01T12:20:45;133.60;;;130.00;;
38994;SDS011;24769;18.712;99.000;2023-03-01T12:48:29;134.60;;;133.20;;
38994;SDS011;24769;18.712;99.000;2023-03-01T12:51:05;147.80;;;143.60;;
38994;SDS011;24769;18.712;99.000;2023-03-01T12:53:39;157.20;;;155.40;;
38994;SDS011;24769;18.712;99.000;2023-03-01T12:56:08;156.60;;;154.40;;
38994;SDS011;24769;18.712;99.000;2023-03-01T13:02:31;161.20;;;156.20;;
38994;SDS011;24769;18.712;99.000;2023-03-01T13:05:00;153.80;;;148.80;;
38994;SDS011;24769;18.712;99.000;2023-03-01T13:08:02;151.60;;;148.80;;
38994;SDS011;24769;18.712;99.000;2023-03-01T13:13:47;144.60;;;140.80;;
38994;SDS011;24769;18.712;99.000;2023-03-01T13:19:14;150.00;;;148.00;;
38994;SDS011;24769;18.712;99.000;2023-03-01T13:21:46;146.60;;;146.20;;
38994;SDS011;24769;18.712;99.000;2023-03-01T13:24:27;160.00;;;154.00;;
38994;SDS011;24769;18.712;99.000;2023-03-01T13:29:47;158.80;;;156.80;;
38994;SDS011;24769;18.712;99.000;2023-03-01T13:34:54;158.50;;;155.00;;
38994;SDS011;24769;18.712;99.000;2023-03-01T13:37:24;153.00;;;150.00;;
38994;SDS011;24769;18.712;99.000;2023-03-01T13:39:55;170.25;;;167.25;;
38994;SDS011;24769;18.712;99.000;2023-03-01T13:42:42;157.75;;;154.25;;
38994;SDS011;24769;18.712;99.000;2023-03-01T13:45:24;155.80;;;153.00;;
38994;SDS011;24769;18.712;99.000;2023-03-01T13:48:18;152.75;;;150.50;;
38994;SDS011;24769;18.712;99.000;2023-03-01T13:50:51;155.00;;;151.25;;
38994;SDS011;24769;18.712;99.000;2023-03-01T13:53:33;157.00;;;149.25;;
38994;SDS011;24769;18.712;99.000;2023-03-01T13:56:15;159.50;;;154.25;;
38994;SDS011;24769;18.712;99.000;2023-03-01T13:58:55;162.00;;;155.50;;
38994;SDS011;24769;18.712;99.000;2023-03-01T14:01:35;153.75;;;150.00;;
38994;SDS011;24769;18.712;99.000;2023-03-01T14:04:03;156.20;;;153.00;;
38994;SDS011;24769;18.712;99.000;2023-03-01T14:06:43;159.00;;;155.25;;
38994;SDS011;24769;18.712;99.000;2023-03-01T14:09:15;158.25;;;155.75;;
38994;SDS011;24769;18.712;99.000;2023-03-01T14:17:24;169.25;;;161.50;;
38994;SDS011;24769;18.712;99.000;2023-03-01T14:20:32;164.25;;;160.00;;
38994;SDS011;24769;18.712;99.000;2023-03-01T14:23:09;162.00;;;158.50;;
38994;SDS011;24769;18.712;99.000;2023-03-01T14:25:45;165.75;;;164.25;;
38994;SDS011;24769;18.712;99.000;2023-03-01T14:31:34;169.25;;;164.25;;
38994;SDS011;24769;18.712;99.000;2023-03-01T14:34:03;157.00;;;157.00;;
38994;SDS011;24769;18.712;99.000;2023-03-01T14:36:31;173.00;;;166.50;;
38994;SDS011;24769;18.712;99.000;2023-03-01T14:39:00;165.75;;;159.25;;
38994;SDS011;24769;18.712;99.000;2023-03-01T14:41:31;169.00;;;163.50;;
38994;SDS011;24769;18.712;99.000;2023-03-01T14:44:02;167.75;;;163.00;;
38994;SDS011;24769;18.712;99.000;2023-03-01T14:46:38;169.00;;;164.00;;
38994;SDS011;24769;18.712;99.000;2023-03-01T14:49:22;156.75;;;153.50;;
38994;SDS011;24769;18.712;99.000;2023-03-01T14:54:37;165.00;;;162.25;;
38994;SDS011;24769;18.712;99.000;2023-03-01T14:57:19;157.25;;;153.75;;
38994;SDS011;24769;18.712;99.000;2023-03-01T14:59:48;163.25;;;162.50;;
38994;SDS011;24769;18.712;99.000;2023-03-01T15:02:20;160.75;;;158.25;;
38994;SDS011;24769;18.712;99.000;2023-03-01T15:04:49;181.00;;;172.00;;
38994;SDS011;24769;18.712;99.000;2023-03-01T15:07:21;178.25;;;175.75;;
38994;SDS011;24769;18.712;99.000;2023-03-01T15:09:51;173.00;;;164.50;;
38994;SDS011;24769;18.712;99.000;2023-03-01T15:14:54;177.00;;;169.25;;
38994;SDS011;24769;18.712;99.000;2023-03-01T15:17:35;172.00;;;165.75;;
38994;SDS011;24769;18.712;99.000;2023-03-01T15:20:14;158.50;;;154.75;;
38994;SDS011;24769;18.712;99.000;2023-03-01T15:22:44;175.25;;;169.00;;
38994;SDS011;24769;18.712;99.000;2023-03-01T15:25:15;162.75;;;157.25;;
38994;SDS011;24769;18.712;99.000;2023-03-01T15:27:46;164.50;;;159.00;;
38994;SDS011;24769;18.712;99.000;2023-03-01T15:30:17;157.50;;;154.50;;
38994;SDS011;24769;18.712;99.000;2023-03-01T15:35:46;168.75;;;165.25;;
38994;SDS011;24769;18.712;99.000;2023-03-01T15:38:24;169.25;;;160.25;;
38994;SDS011;24769;18.712;99.000;2023-03-01T15:40:52;162.75;;;155.00;;
38994;SDS011;24769;18.712;99.000;2023-03-01T15:43:38;170.25;;;166.50;;
38994;SDS011;24769;18.712;99.000;2023-03-01T15:48:51;161.50;;;156.00;;
38994;SDS011;24769;18.712;99.000;2023-03-01T15:51:30;167.00;;;163.00;;
38994;SDS011;24769;18.712;99.000;2023-03-01T15:54:00;164.75;;;162.50;;
38994;SDS011;24769;18.712;99.000;2023-03-01T15:56:30;173.75;;;170.00;;
38994;SDS011;24769;18.712;99.000;2023-03-01T15:58:57;171.25;;;169.00;;
38994;SDS011;24769;18.712;99.000;2023-03-01T16:01:25;173.25;;;167.75;;
38994;SDS011;24769;18.712;99.000;2023-03-01T16:03:52;175.00;;;168.75;;
38994;SDS011;24769;18.712;99.000;2023-03-01T16:06:19;161.25;;;158.75;;
38994;SDS011;24769;18.712;99.000;2023-03-01T16:08:45;170.75;;;166.00;;
38994;SDS011;24769;18.712;99.000;2023-03-01T16:11:20;172.50;;;165.75;;
38994;SDS011;24769;18.712;99.000;2023-03-01T16:13:47;167.25;;;162.00;;
38994;SDS011;24769;18.712;99.000;2023-03-01T16:16:15;165.25;;;159.75;;
38994;SDS011;24769;18.712;99.000;2023-03-01T16:18:43;174.50;;;169.50;;
38994;SDS011;24769;18.712;99.000;2023-03-01T16:21:18;178.75;;;173.25;;